Time;durP1;ratioP1;P1;durP2;ratioP2;P2;SDS_P1;SDS_P2;PMS_P1;PMS_P2;Temp;Humidity;BMP_temperature;BMP_pressure;BME280_temperature;BME280_humidity;BME280_pressure;Samples;Min_cycle;Max_cycle;Signal;HPM_P1;HPM_P2
2022/11/22 00:00:36;;;;;;;17.05;12.40;;;4.40;99.90;;;;;;5113772;28;20515;-70
2022/11/22 00:03:02;;;;;;;19.67;12.63;;;4.40;99.90;;;;;;5113671;28;20044;-69
2022/11/22 00:05:27;;;;;;;19.60;12.90;;;4.40;99.90;;;;;;5114136;28;20043;-69
2022/11/22 00:07:53;;;;;;;20.05;12.75;;;4.40;99.90;;;;;;5113528;28;20508;-69
2022/11/22 00:10:18;;;;;;;23.67;12.95;;;4.40;99.90;;;;;;5114329;28;20050;-69
2022/11/22 00:12:44;;;;;;;20.83;14.15;;;4.40;99.90;;;;;;5113326;28;20039;-70
2022/11/22 00:15:11;;;;;;;18.65;14.02;;;4.40;99.90;;;;;;5113525;28;20035;-70
2022/11/22 00:17:37;;;;;;;19.15;13.63;;;4.40;99.90;;;;;;5113455;28;20105;-70
2022/11/22 00:20:04;;;;;;;20.77;13.75;;;4.40;99.90;;;;;;5113435;28;20071;-70
2022/11/22 00:22:31;;;;;;;19.33;13.77;;;4.40;99.90;;;;;;5113539;28;20496;-70
2022/11/22 00:24:57;;;;;;;19.88;13.90;;;4.40;99.90;;;;;;5113629;28;20122;-70
2022/11/22 00:27:22;;;;;;;19.98;13.57;;;4.40;99.90;;;;;;5113248;28;20472;-70
2022/11/22 00:29:48;;;;;;;22.25;14.27;;;4.40;99.90;;;;;;5114496;28;20032;-70
2022/11/22 00:32:14;;;;;;;19.02;13.32;;;4.40;99.90;;;;;;5096139;28;20040;-70
2022/11/22 00:34:39;;;;;;;20.58;13.45;;;4.40;99.90;;;;;;5113152;28;20043;-70
2022/11/22 00:37:05;;;;;;;19.25;12.95;;;4.40;99.90;;;;;;5113340;28;20049;-70
2022/11/22 00:39:30;;;;;;;19.25;13.07;;;4.40;99.90;;;;;;5113332;28;20062;-70
2022/11/22 00:41:56;;;;;;;23.92;14.57;;;4.40;99.90;;;;;;5112837;28;20036;-70
2022/11/22 00:44:21;;;;;;;22.48;14.77;;;4.40;99.90;;;;;;5113240;28;20051;-70
2022/11/22 00:46:47;;;;;;;22.33;14.30;;;4.40;99.90;;;;;;5112849;28;20050;-70
2022/11/22 00:49:12;;;;;;;20.10;13.57;;;4.40;99.90;;;;;;5113132;28;20044;-70
2022/11/22 00:51:39;;;;;;;19.20;12.90;;;4.40;99.90;;;;;;5112799;28;20057;-70
2022/11/22 00:54:05;;;;;;;21.80;14.23;;;4.40;99.90;;;;;;5095837;28;20110;-70
2022/11/22 00:56:30;;;;;;;21.30;13.20;;;4.40;99.90;;;;;;5112805;28;20114;-70
2022/11/22 00:58:56;;;;;;;19.17;13.40;;;4.30;99.90;;;;;;5112673;28;20039;-70
2022/11/22 01:01:22;;;;;;;19.30;13.48;;;4.40;99.90;;;;;;5112661;28;20043;-70
2022/11/22 01:03:47;;;;;;;17.52;12.95;;;4.40;99.90;;;;;;5112557;28;20069;-70
2022/11/22 01:06:16;;;;;;;21.92;13.02;;;4.40;99.90;;;;;;5112865;28;20040;-70
2022/11/22 01:08:42;;;;;;;20.38;13.90;;;4.40;99.90;;;;;;5112445;28;20054;-70
2022/11/22 01:11:08;;;;;;;21.73;13.43;;;4.30;99.90;;;;;;5112510;28;20031;-70
2022/11/22 01:13:33;;;;;;;21.00;13.57;;;4.40;99.90;;;;;;5112418;28;20044;-70
2022/11/22 01:16:05;;;;;;;19.00;12.90;;;4.40;99.90;;;;;;5114009;28;20074;-70
2022/11/22 01:18:32;;;;;;;19.45;14.05;;;4.40;99.90;;;;;;5112448;28;20051;-70
2022/11/22 01:20:57;;;;;;;17.17;13.65;;;4.40;99.90;;;;;;5112403;28;20035;-70
2022/11/22 01:23:23;;;;;;;21.75;14.43;;;4.30;99.90;;;;;;5112704;28;20081;-70
2022/11/22 01:25:49;;;;;;;22.17;14.60;;;4.40;99.90;;;;;;5112310;28;20039;-70
2022/11/22 01:28:15;;;;;;;21.00;14.77;;;4.40;99.90;;;;;;5112209;28;20048;-70
2022/11/22 01:30:41;;;;;;;22.50;14.60;;;4.40;99.90;;;;;;5112360;28;20111;-70
2022/11/22 01:33:08;;;;;;;22.88;15.25;;;4.40;99.90;;;;;;5112235;28;20451;-70
2022/11/22 01:35:34;;;;;;;24.20;14.00;;;4.40;99.90;;;;;;5112234;28;20471;-70
2022/11/22 01:37:59;;;;;;;21.83;14.55;;;4.40;99.90;;;;;;5112294;28;20074;-70
2022/11/22 01:40:25;;;;;;;19.55;14.38;;;4.40;99.90;;;;;;5112241;28;20136;-70
2022/11/22 01:42:54;;;;;;;21.27;14.98;;;4.40;99.90;;;;;;5112226;28;20051;-70
2022/11/22 01:45:29;;;;;;;24.40;14.65;;;4.40;99.90;;;;;;5112225;28;20118;-70
2022/11/22 01:48:12;;;;;;;22.48;14.95;;;4.40;99.90;;;;;;5112060;28;20065;-70
2022/11/22 01:50:41;;;;;;;22.23;14.40;;;4.40;99.90;;;;;;5112485;28;20047;-70
2022/11/22 01:53:12;;;;;;;22.52;15.20;;;4.40;99.90;;;;;;5112031;28;20274;-70
2022/11/22 01:55:39;;;;;;;21.65;15.48;;;4.30;99.90;;;;;;5112208;28;20040;-70
2022/11/22 01:58:04;;;;;;;23.48;16.15;;;4.40;99.90;;;;;;5112380;28;20039;-70
2022/11/22 02:00:30;;;;;;;22.85;15.30;;;4.40;99.90;;;;;;5112016;28;20514;-70
2022/11/22 02:03:00;;;;;;;22.77;15.07;;;4.40;99.90;;;;;;5112166;28;20050;-70
2022/11/22 02:05:31;;;;;;;23.27;15.45;;;4.40;99.90;;;;;;5112336;28;20407;-70
2022/11/22 02:08:18;;;;;;;22.67;14.85;;;4.40;99.90;;;;;;5112492;28;20434;-70
2022/11/22 02:10:47;;;;;;;24.55;16.08;;;4.40;99.90;;;;;;5111969;28;20039;-70
2022/11/22 02:13:14;;;;;;;22.58;15.68;;;4.30;99.90;;;;;;5111866;28;20036;-70
2022/11/22 02:15:41;;;;;;;24.65;15.73;;;4.40;99.90;;;;;;5111910;28;20043;-70
2022/11/22 02:18:07;;;;;;;21.60;15.25;;;4.30;99.90;;;;;;5111879;28;20488;-70
2022/11/22 02:20:32;;;;;;;23.75;15.38;;;4.40;99.90;;;;;;5111865;28;20050;-70
2022/11/22 02:23:16;;;;;;;23.13;15.70;;;4.30;99.90;;;;;;5112048;28;20051;-70
2022/11/22 02:25:51;;;;;;;24.55;15.73;;;4.30;99.90;;;;;;5112248;28;20412;-70
2022/11/22 02:28:17;;;;;;;25.60;15.52;;;4.30;99.90;;;;;;5111742;28;20165;-70
2022/11/22 02:30:42;;;;;;;25.60;16.25;;;4.30;99.90;;;;;;5111777;28;20134;-70
2022/11/22 02:33:08;;;;;;;26.27;16.58;;;4.30;99.90;;;;;;5111950;28;20047;-70
2022/11/22 02:35:34;;;;;;;21.77;15.32;;;4.40;99.90;;;;;;5115038;28;20036;-70
2022/11/22 02:38:03;;;;;;;29.05;17.05;;;4.40;99.90;;;;;;5115399;28;20048;-70
2022/11/22 02:40:34;;;;;;;27.25;16.50;;;4.40;99.90;;;;;;5115527;28;20573;-70
2022/11/22 02:43:06;;;;;;;27.92;17.15;;;4.40;99.90;;;;;;5115130;28;20051;-70
2022/11/22 02:45:32;;;;;;;24.63;15.68;;;4.40;99.90;;;;;;5115521;28;20031;-70
2022/11/22 02:48:08;;;;;;;25.02;16.05;;;4.40;99.90;;;;;;5115150;28;20501;-70
2022/11/22 02:50:34;;;;;;;22.83;15.15;;;4.50;99.90;;;;;;5115208;28;20036;-70
2022/11/22 02:53:00;;;;;;;24.38;15.27;;;4.50;99.90;;;;;;5115061;28;20100;-70
2022/11/22 02:55:26;;;;;;;24.33;15.38;;;4.50;99.90;;;;;;5115122;28;20063;-70
2022/11/22 02:57:51;;;;;;;25.20;16.40;;;4.50;99.90;;;;;;5115302;28;20058;-70
2022/11/22 03:00:17;;;;;;;22.90;15.25;;;4.50;99.90;;;;;;5114984;28;20031;-70
2022/11/22 03:02:43;;;;;;;24.30;15.07;;;4.50;99.90;;;;;;5114905;28;20084;-70
2022/11/22 03:05:08;;;;;;;22.20;14.55;;;4.50;99.90;;;;;;5114972;28;20062;-70
2022/11/22 03:07:34;;;;;;;23.25;15.32;;;4.50;99.90;;;;;;5114951;28;20097;-70
2022/11/22 03:10:00;;;;;;;20.65;14.20;;;4.60;99.90;;;;;;5114811;28;20084;-70
2022/11/22 03:12:25;;;;;;;21.90;14.18;;;4.60;99.90;;;;;;5116533;28;20039;-70
2022/11/22 03:14:51;;;;;;;22.52;14.30;;;4.60;99.90;;;;;;5114725;28;20050;-70
2022/11/22 03:17:16;;;;;;;21.45;14.57;;;4.60;99.90;;;;;;5114675;28;20050;-70
2022/11/22 03:19:42;;;;;;;23.67;15.20;;;4.60;99.90;;;;;;5114604;28;20039;-70
2022/11/22 03:22:07;;;;;;;25.52;14.73;;;4.60;99.90;;;;;;5114466;28;20050;-69
2022/11/22 03:24:33;;;;;;;24.10;15.60;;;4.60;99.90;;;;;;5114787;28;20043;-69
2022/11/22 03:26:58;;;;;;;21.30;14.20;;;4.70;99.90;;;;;;5114405;28;20123;-69
2022/11/22 03:29:24;;;;;;;20.98;14.40;;;4.70;99.90;;;;;;5115717;28;20071;-70
2022/11/22 03:31:49;;;;;;;21.70;14.07;;;4.70;99.90;;;;;;5114624;28;20511;-70
2022/11/22 03:34:15;;;;;;;19.08;14.00;;;4.70;99.90;;;;;;5114329;28;20480;-70
2022/11/22 03:36:41;;;;;;;22.33;14.55;;;4.80;99.90;;;;;;5114342;28;20035;-70
2022/11/22 03:39:07;;;;;;;23.90;14.57;;;4.70;99.90;;;;;;5114565;28;20035;-70
2022/11/22 03:41:32;;;;;;;20.92;14.63;;;4.80;99.90;;;;;;5114272;28;20504;-70
2022/11/22 03:43:58;;;;;;;22.17;14.13;;;4.80;99.90;;;;;;5114016;28;20036;-70
2022/11/22 03:46:23;;;;;;;23.45;14.43;;;4.80;99.90;;;;;;5113294;28;20078;-70
2022/11/22 03:48:49;;;;;;;18.88;13.27;;;4.80;99.90;;;;;;5113984;28;20131;-70
2022/11/22 03:51:15;;;;;;;22.98;13.70;;;4.80;99.90;;;;;;5114013;28;20051;-70
2022/11/22 03:53:40;;;;;;;19.92;13.95;;;4.80;99.90;;;;;;5113902;28;20050;-70
2022/11/22 03:56:06;;;;;;;21.98;13.82;;;4.80;99.90;;;;;;5113957;28;20516;-70
2022/11/22 03:58:32;;;;;;;20.27;14.95;;;4.80;99.90;;;;;;5113904;28;20074;-70
2022/11/22 04:00:57;;;;;;;23.08;14.98;;;4.80;99.90;;;;;;5114079;28;20047;-70
2022/11/22 04:03:23;;;;;;;24.27;14.38;;;4.80;99.90;;;;;;5115310;28;20484;-70
2022/11/22 04:05:49;;;;;;;19.83;14.15;;;4.90;99.90;;;;;;5113998;28;20488;-70
2022/11/22 04:08:14;;;;;;;22.63;14.07;;;4.80;99.90;;;;;;5113604;28;20047;-70
2022/11/22 04:10:40;;;;;;;20.95;13.45;;;4.90;99.90;;;;;;5113628;28;20040;-70
2022/11/22 04:13:05;;;;;;;26.10;16.05;;;4.90;99.90;;;;;;5113503;28;20506;-70
2022/11/22 04:15:31;;;;;;;23.65;15.30;;;4.90;99.90;;;;;;5113809;28;20032;-70
2022/11/22 04:17:57;;;;;;;25.40;14.85;;;4.90;99.90;;;;;;5114720;28;20442;-70
2022/11/22 04:23:15;;;;;;;20.17;14.13;;;4.90;99.90;;;;;;5113531;28;20403;-69
2022/11/22 04:25:43;;;;;;;22.17;14.05;;;4.90;99.90;;;;;;5113356;28;20047;-69
2022/11/22 04:28:10;;;;;;;24.05;14.73;;;4.90;99.90;;;;;;5113250;28;20073;-70
2022/11/22 04:33:21;;;;;;;26.58;14.75;;;5.00;99.90;;;;;;5113051;28;20044;-70
2022/11/22 04:35:47;;;;;;;20.98;14.30;;;5.00;99.90;;;;;;5113419;28;20059;-70
2022/11/22 04:38:13;;;;;;;23.92;14.02;;;5.00;99.90;;;;;;5114365;28;20043;-70
2022/11/22 04:40:39;;;;;;;21.65;13.55;;;5.00;99.90;;;;;;5113086;28;20035;-70
2022/11/22 04:45:51;;;;;;;20.15;12.85;;;5.10;99.90;;;;;;5112962;28;20109;-70
2022/11/22 04:48:17;;;;;;;24.77;14.07;;;5.10;99.90;;;;;;5112886;28;20044;-70
2022/11/22 04:53:27;;;;;;;19.77;13.88;;;5.10;99.90;;;;;;5112793;28;20082;-70
2022/11/22 04:55:53;;;;;;;23.00;14.07;;;5.10;99.90;;;;;;5112998;28;20054;-70
2022/11/22 04:58:19;;;;;;;21.55;14.20;;;5.10;99.90;;;;;;5113689;28;20044;-70
2022/11/22 05:00:45;;;;;;;22.13;13.63;;;5.20;99.90;;;;;;5112736;28;20036;-70
2022/11/22 05:03:10;;;;;;;18.65;12.90;;;5.20;99.90;;;;;;5112886;28;20043;-70
2022/11/22 05:05:38;;;;;;;23.02;13.38;;;5.20;99.90;;;;;;5112943;28;20035;-70
2022/11/22 05:08:05;;;;;;;20.73;13.82;;;5.20;99.90;;;;;;5112531;28;20057;-70
2022/11/22 05:13:16;;;;;;;19.92;13.25;;;5.20;99.90;;;;;;5113739;28;20039;-70
2022/11/22 05:15:42;;;;;;;18.58;14.07;;;5.20;99.90;;;;;;5112501;28;20480;-70
2022/11/22 05:18:08;;;;;;;22.33;13.82;;;5.20;99.90;;;;;;5112693;28;20056;-70
2022/11/22 05:20:34;;;;;;;23.48;13.82;;;5.30;99.90;;;;;;5112763;28;20404;-70
2022/11/22 05:25:44;;;;;;;19.95;13.13;;;5.30;99.90;;;;;;5112399;28;20079;-70
2022/11/22 05:28:09;;;;;;;21.75;14.02;;;5.30;99.90;;;;;;5112438;28;20079;-70
2022/11/22 05:30:38;;;;;;;22.25;12.82;;;5.40;99.90;;;;;;5112614;28;20465;-70
2022/11/22 05:33:03;;;;;;;19.58;13.13;;;5.40;99.90;;;;;;5112513;28;20039;-70
2022/11/22 05:35:29;;;;;;;21.33;13.68;;;5.40;99.90;;;;;;5112584;28;20054;-70
2022/11/22 05:37:55;;;;;;;20.23;12.88;;;5.40;99.90;;;;;;5113820;28;20556;-70
2022/11/22 05:40:21;;;;;;;19.92;12.73;;;5.40;99.90;;;;;;5112246;28;20096;-70
2022/11/22 05:42:47;;;;;;;21.70;12.20;;;5.40;99.90;;;;;;5112257;28;20130;-70
2022/11/22 05:45:12;;;;;;;19.33;12.23;;;5.50;99.90;;;;;;5113945;28;20503;-70
2022/11/22 05:47:38;;;;;;;22.63;13.98;;;5.50;99.90;;;;;;5112176;28;20423;-70
2022/11/22 05:50:04;;;;;;;18.80;12.65;;;5.50;99.90;;;;;;5112118;28;20042;-70
2022/11/22 05:52:29;;;;;;;17.23;11.48;;;5.50;99.90;;;;;;5112092;28;20048;-70
2022/11/22 05:54:55;;;;;;;21.33;13.52;;;5.50;99.90;;;;;;5112137;28;20035;-70
2022/11/22 05:57:20;;;;;;;20.33;12.50;;;5.50;99.90;;;;;;5112350;28;20047;-70
2022/11/22 05:59:46;;;;;;;24.20;12.95;;;5.50;99.90;;;;;;5112332;28;20491;-70
2022/11/22 06:02:11;;;;;;;19.10;11.80;;;5.50;99.90;;;;;;5111991;28;20523;-70
2022/11/22 06:04:37;;;;;;;21.45;12.18;;;5.50;99.90;;;;;;5111994;28;20043;-70
2022/11/22 06:07:02;;;;;;;21.77;12.77;;;5.50;99.90;;;;;;5111912;28;20048;-70
2022/11/22 06:09:28;;;;;;;21.00;12.55;;;5.60;99.90;;;;;;5113967;28;20039;-70
2022/11/22 06:11:53;;;;;;;20.20;13.80;;;5.60;99.90;;;;;;5115899;28;20484;-70
2022/11/22 06:14:19;;;;;;;22.48;14.93;;;5.50;99.90;;;;;;5116199;28;20044;-70
2022/11/22 06:16:45;;;;;;;20.38;13.95;;;5.50;99.90;;;;;;5116146;28;20047;-70
2022/11/22 06:19:11;;;;;;;19.90;13.00;;;5.60;99.90;;;;;;5117081;28;20496;-70
2022/11/22 06:21:37;;;;;;;22.15;11.88;;;5.60;99.90;;;;;;5115849;28;20540;-70
2022/11/22 06:24:03;;;;;;;21.88;12.57;;;5.60;99.90;;;;;;5115590;28;20177;-70
2022/11/22 06:26:28;;;;;;;18.00;10.95;;;5.60;99.90;;;;;;5117461;28;20042;-70
2022/11/22 06:28:54;;;;;;;19.73;10.88;;;5.60;99.90;;;;;;5115530;28;20047;-70
2022/11/22 06:31:22;;;;;;;20.55;10.77;;;5.70;99.90;;;;;;5115626;28;20078;-70
2022/11/22 06:33:48;;;;;;;21.77;11.77;;;5.70;99.90;;;;;;5115718;28;20078;-70
2022/11/22 06:36:22;;;;;;;20.48;11.45;;;5.70;99.90;;;;;;5115485;28;20416;-70
2022/11/22 06:38:48;;;;;;;19.20;11.80;;;5.60;99.90;;;;;;5115479;28;20434;-70
2022/11/22 06:41:19;;;;;;;17.95;10.48;;;5.70;99.90;;;;;;5115607;28;20049;-70
2022/11/22 06:43:47;;;;;;;19.30;11.15;;;5.70;99.90;;;;;;5115508;28;20047;-70
2022/11/22 06:46:13;;;;;;;21.42;9.93;;;5.70;99.90;;;;;;5098299;28;20039;-70
2022/11/22 06:48:41;;;;;;;18.95;9.88;;;5.70;99.90;;;;;;5116438;28;20040;-71
2022/11/22 06:51:12;;;;;;;20.30;10.75;;;5.70;99.90;;;;;;5115212;28;20040;-71
2022/11/22 06:53:38;;;;;;;23.48;10.68;;;5.80;99.90;;;;;;5115151;28;20035;-70
2022/11/22 06:56:18;;;;;;;19.38;9.93;;;5.70;99.90;;;;;;5115388;28;20126;-70
2022/11/22 06:58:44;;;;;;;21.23;10.82;;;5.70;99.90;;;;;;5115132;28;20046;-70
2022/11/22 07:01:18;;;;;;;20.70;10.48;;;5.70;99.90;;;;;;5115017;28;20539;-70
2022/11/22 07:03:45;;;;;;;19.60;10.30;;;5.70;99.90;;;;;;5114895;28;20080;-70
2022/11/22 07:06:12;;;;;;;22.38;9.65;;;5.60;99.90;;;;;;5114934;28;20168;-70
2022/11/22 07:08:38;;;;;;;20.63;9.93;;;5.60;99.90;;;;;;5115655;28;20048;-71
2022/11/22 07:11:13;;;;;;;17.17;9.35;;;5.70;99.90;;;;;;5115038;28;20369;-71
2022/11/22 07:13:38;;;;;;;19.00;9.77;;;5.60;99.90;;;;;;5116139;28;20067;-71
2022/11/22 07:16:07;;;;;;;19.90;9.82;;;5.60;99.90;;;;;;5116052;28;20067;-71
2022/11/22 07:18:33;;;;;;;21.58;8.70;;;5.60;99.90;;;;;;5114717;28;20050;-70
2022/11/22 07:21:13;;;;;;;20.67;9.95;;;5.50;99.90;;;;;;5114523;28;20035;-70
2022/11/22 07:23:40;;;;;;;22.15;8.82;;;5.60;99.90;;;;;;5115799;28;20504;-70
2022/11/22 07:26:05;;;;;;;16.55;7.80;;;5.60;99.90;;;;;;5114567;28;20040;-71
2022/11/22 07:28:31;;;;;;;18.35;8.43;;;5.60;99.90;;;;;;5115631;28;20104;-70
2022/11/22 07:31:02;;;;;;;20.60;8.40;;;5.50;99.90;;;;;;5114736;28;20122;-70
2022/11/22 07:33:28;;;;;;;21.20;8.75;;;5.50;99.90;;;;;;5114359;28;20047;-70
2022/11/22 07:35:54;;;;;;;20.95;8.13;;;5.50;99.90;;;;;;5114389;28;20040;-70
2022/11/22 07:38:19;;;;;;;17.30;8.52;;;5.50;99.90;;;;;;5114335;28;20035;-70
2022/11/22 07:40:45;;;;;;;15.43;7.18;;;5.40;99.90;;;;;;5114248;28;20043;-70
2022/11/22 07:43:11;;;;;;;18.33;6.88;;;5.50;99.90;;;;;;5114106;28;20046;-70
2022/11/22 07:45:36;;;;;;;16.50;8.23;;;5.50;99.90;;;;;;5114140;28;20040;-70
2022/11/22 07:48:02;;;;;;;18.88;7.10;;;5.50;99.90;;;;;;5114126;28;20043;-70
2022/11/22 07:50:28;;;;;;;16.13;6.68;;;5.50;99.90;;;;;;5114381;28;20040;-70
2022/11/22 07:52:57;;;;;;;21.67;7.18;;;5.50;99.90;;;;;;5114102;28;20043;-70
2022/11/22 07:55:25;;;;;;;18.85;6.50;;;5.50;99.90;;;;;;5113929;28;20496;-70
2022/11/22 07:57:52;;;;;;;19.08;6.47;;;5.40;99.90;;;;;;5113904;28;20515;-70
2022/11/22 08:00:18;;;;;;;21.60;6.55;;;5.50;99.90;;;;;;5113867;28;20492;-70
2022/11/22 08:02:44;;;;;;;23.75;6.78;;;5.50;99.90;;;;;;5113726;28;20040;-70
2022/11/22 08:05:09;;;;;;;17.63;6.20;;;5.50;99.90;;;;;;5113726;28;20047;-70
2022/11/22 08:07:35;;;;;;;22.27;6.40;;;5.50;99.90;;;;;;5115364;28;20044;-70
2022/11/22 08:10:00;;;;;;;26.45;6.15;;;5.50;99.90;;;;;;5113676;28;20403;-71
2022/11/22 08:12:26;;;;;;;19.75;6.97;;;5.50;99.90;;;;;;5113580;28;20039;-71
2022/11/22 08:14:52;;;;;;;17.35;5.60;;;5.50;99.90;;;;;;5113546;28;20128;-73
2022/11/22 08:17:17;;;;;;;22.52;6.60;;;5.50;99.90;;;;;;5113552;28;20093;-71
2022/11/22 08:19:43;;;;;;;19.83;5.75;;;5.50;99.90;;;;;;5113448;28;20051;-71
2022/11/22 08:22:08;;;;;;;20.23;5.55;;;5.50;99.90;;;;;;5113361;28;20040;-71
2022/11/22 08:24:34;;;;;;;22.23;5.72;;;5.40;99.90;;;;;;5114947;28;20039;-70
2022/11/22 08:26:59;;;;;;;18.33;5.28;;;5.50;99.90;;;;;;5115112;28;20058;-70
2022/11/22 08:29:25;;;;;;;22.38;5.35;;;5.50;99.90;;;;;;5113298;28;20044;-70
2022/11/22 08:31:50;;;;;;;16.92;4.18;;;5.50;99.90;;;;;;5112573;28;20043;-70
2022/11/22 08:34:16;;;;;;;21.20;4.50;;;5.50;99.90;;;;;;5113438;28;20062;-70
2022/11/22 08:36:41;;;;;;;17.70;4.30;;;5.50;99.90;;;;;;5113195;28;20416;-70
2022/11/22 08:39:07;;;;;;;18.63;4.40;;;5.50;99.90;;;;;;5113354;28;20043;-70
2022/11/22 08:41:32;;;;;;;17.02;4.25;;;5.50;99.90;;;;;;5112968;28;20411;-70
2022/11/22 08:43:58;;;;;;;17.48;3.90;;;5.60;99.90;;;;;;5112882;28;20047;-70
2022/11/22 08:46:24;;;;;;;21.15;4.55;;;5.60;99.90;;;;;;5113250;28;20095;-70
2022/11/22 08:48:52;;;;;;;22.02;4.47;;;5.60;99.90;;;;;;5112882;28;20093;-70
2022/11/22 08:51:18;;;;;;;16.75;3.65;;;5.60;99.90;;;;;;5112893;28;20111;-70
2022/11/22 08:53:44;;;;;;;12.13;3.55;;;5.60;99.90;;;;;;5112793;28;20118;-70
2022/11/22 08:56:12;;;;;;;23.42;3.97;;;5.70;99.90;;;;;;5112844;28;20044;-70
2022/11/22 08:58:38;;;;;;;16.55;3.35;;;5.70;99.90;;;;;;5112807;28;20122;-70
2022/11/22 09:01:09;;;;;;;19.80;3.53;;;5.80;99.90;;;;;;5112992;28;20079;-70
2022/11/22 09:03:36;;;;;;;15.43;3.65;;;5.90;99.90;;;;;;5112652;28;20455;-73
2022/11/22 09:06:03;;;;;;;16.33;3.05;;;5.90;99.90;;;;;;5112709;28;20046;-71
2022/11/22 09:08:30;;;;;;;15.35;3.30;;;6.00;99.90;;;;;;5112645;28;20535;-71
2022/11/22 09:10:59;;;;;;;20.98;3.58;;;6.00;99.90;;;;;;5112596;28;20044;-71
2022/11/22 09:13:25;;;;;;;15.38;3.22;;;6.10;99.90;;;;;;5112510;28;20118;-71
2022/11/22 09:15:51;;;;;;;15.45;3.53;;;6.00;99.90;;;;;;5112524;28;20123;-71
2022/11/22 09:18:16;;;;;;;12.60;2.85;;;6.00;99.90;;;;;;5112532;28;20092;-70
2022/11/22 09:20:42;;;;;;;18.05;3.50;;;6.10;99.90;;;;;;5112488;28;20039;-70
2022/11/22 09:23:07;;;;;;;14.23;2.72;;;6.10;99.90;;;;;;5112313;28;20122;-70
2022/11/22 09:25:33;;;;;;;15.50;3.85;;;6.10;99.90;;;;;;5112438;28;20086;-70
2022/11/22 09:28:01;;;;;;;16.15;3.33;;;6.10;99.90;;;;;;5112315;28;20135;-70
2022/11/22 09:30:28;;;;;;;12.63;3.03;;;6.10;99.90;;;;;;5095396;28;20051;-70
2022/11/22 09:32:53;;;;;;;16.50;3.28;;;6.10;99.90;;;;;;5112487;28;20507;-70
2022/11/22 09:35:19;;;;;;;15.85;3.10;;;6.20;99.90;;;;;;5112541;28;20047;-70
2022/11/22 09:37:45;;;;;;;17.92;3.38;;;6.20;99.90;;;;;;5112254;28;20047;-70
2022/11/22 09:40:11;;;;;;;18.08;3.58;;;6.20;99.90;;;;;;5112233;28;20079;-70
2022/11/22 09:42:56;;;;;;;15.48;2.67;;;6.20;99.90;;;;;;5112273;28;20098;-70
2022/11/22 09:45:37;;;;;;;16.63;3.30;;;6.20;99.90;;;;;;5115663;28;20050;-70
2022/11/22 09:48:24;;;;;;;14.02;2.90;;;6.30;99.90;;;;;;5116350;28;20040;-70
2022/11/22 09:51:05;;;;;;;13.35;3.05;;;6.30;99.90;;;;;;5116694;28;20111;-70
2022/11/22 09:53:47;;;;;;;18.88;3.47;;;6.30;99.90;;;;;;5116318;28;20044;-70
2022/11/22 09:56:15;;;;;;;10.98;3.03;;;6.30;99.90;;;;;;5118057;28;20035;-70
2022/11/22 09:59:03;;;;;;;12.68;2.45;;;6.30;99.90;;;;;;5116202;28;20090;-70
2022/11/22 10:01:37;;;;;;;10.77;2.85;;;6.40;99.90;;;;;;5116494;28;20051;-70
2022/11/22 10:04:16;;;;;;;17.00;2.63;;;6.40;99.90;;;;;;5116130;28;20609;-70
2022/11/22 10:06:48;;;;;;;12.30;2.60;;;6.40;99.90;;;;;;5116362;28;20122;-70
2022/11/22 10:09:32;;;;;;;16.38;2.80;;;6.40;99.90;;;;;;5115989;28;20044;-70
2022/11/22 10:12:05;;;;;;;10.43;2.63;;;6.50;99.90;;;;;;5116220;28;20039;-70
2022/11/22 10:14:31;;;;;;;11.23;2.83;;;6.40;99.90;;;;;;5117229;28;20134;-70
2022/11/22 10:17:18;;;;;;;12.30;3.25;;;6.40;99.90;;;;;;5116099;28;20075;-70
2022/11/22 10:19:52;;;;;;;11.93;2.95;;;6.50;99.90;;;;;;5115904;28;20069;-70
2022/11/22 10:22:18;;;;;;;12.90;3.03;;;6.50;99.90;;;;;;5115765;28;20467;-70
2022/11/22 10:24:44;;;;;;;13.60;2.60;;;6.50;99.90;;;;;;5116021;28;20119;-70
2022/11/22 10:27:14;;;;;;;8.57;2.25;;;6.60;99.90;;;;;;5115634;28;20507;-70
2022/11/22 10:29:55;;;;;;;11.68;2.78;;;6.60;99.90;;;;;;5116866;28;20031;-70
2022/11/22 10:32:33;;;;;;;14.90;2.65;;;6.70;99.90;;;;;;5115831;28;20331;-69
2022/11/22 10:35:21;;;;;;;13.23;2.40;;;6.70;99.90;;;;;;5115821;28;20036;-70
2022/11/22 10:37:49;;;;;;;7.78;2.15;;;6.70;99.90;;;;;;5115521;28;20050;-69
2022/11/22 10:40:42;;;;;;;10.45;2.25;;;6.80;99.90;;;;;;5115649;28;20474;-69
2022/11/22 10:43:28;;;;;;;10.48;2.83;;;6.90;99.90;;;;;;5115182;28;20492;-69
2022/11/22 10:46:12;;;;;;;9.57;2.28;;;7.00;99.90;;;;;;5115663;28;20051;-70
2022/11/22 10:48:51;;;;;;;10.32;2.67;;;7.10;99.90;;;;;;5115152;28;20036;-70
2022/11/22 10:51:42;;;;;;;13.00;2.33;;;7.10;99.90;;;;;;5115257;28;20515;-70
2022/11/22 10:54:33;;;;;;;8.88;2.40;;;7.10;99.90;;;;;;5115427;28;20047;-70
2022/11/22 10:57:12;;;;;;;13.85;2.40;;;7.20;99.90;;;;;;5115177;28;20064;-70
2022/11/22 11:00:02;;;;;;;9.43;2.08;;;7.30;99.90;;;;;;5116957;28;20046;-70
2022/11/22 11:02:47;;;;;;;9.82;2.95;;;7.40;99.90;;;;;;5114969;28;20403;-70
2022/11/22 11:05:18;;;;;;;12.57;3.00;;;7.30;99.90;;;;;;5116853;28;20050;-70
2022/11/22 11:07:47;;;;;;;9.38;2.17;;;7.30;99.90;;;;;;5115385;28;20067;-70
2022/11/22 11:10:17;;;;;;;10.10;2.10;;;7.30;99.90;;;;;;5114889;28;20044;-70
2022/11/22 11:13:13;;;;;;;9.65;2.10;;;7.30;99.90;;;;;;5114746;28;20047;-70
2022/11/22 11:15:44;;;;;;;11.85;2.50;;;7.30;99.90;;;;;;5114824;28;20048;-70
2022/11/22 11:18:36;;;;;;;12.43;2.45;;;7.30;99.90;;;;;;5114790;28;20049;-70
2022/11/22 11:21:08;;;;;;;10.75;2.22;;;7.30;99.90;;;;;;5066183;28;20516;-69
2022/11/22 11:23:34;;;;;;;9.50;2.78;;;7.40;99.90;;;;;;5114525;28;20082;-70
2022/11/22 11:26:17;;;;;;;9.57;2.58;;;7.40;99.90;;;;;;5114590;28;20039;-70
2022/11/22 11:28:43;;;;;;;9.73;2.58;;;7.40;99.90;;;;;;5114568;28;20404;-70
2022/11/22 11:31:12;;;;;;;8.32;1.92;;;7.30;99.90;;;;;;5114752;28;20040;-70
2022/11/22 11:33:40;;;;;;;7.72;1.80;;;7.40;99.90;;;;;;5114385;28;20046;-70
2022/11/22 11:36:09;;;;;;;10.80;2.28;;;7.40;99.90;;;;;;5114624;28;20044;-70
2022/11/22 11:38:39;;;;;;;15.57;2.65;;;7.40;99.90;;;;;;5114347;28;20047;-70
2022/11/22 11:41:29;;;;;;;12.57;2.30;;;7.40;99.90;;;;;;5115103;28;20031;-70
2022/11/22 11:44:02;;;;;;;8.40;1.83;;;7.40;99.90;;;;;;5115335;28;20088;-70
2022/11/22 11:46:40;;;;;;;7.03;1.80;;;7.30;99.90;;;;;;5114271;28;20036;-70
2022/11/22 11:49:17;;;;;;;9.77;2.72;;;7.40;99.90;;;;;;5114104;28;20039;-70
2022/11/22 11:51:45;;;;;;;14.15;2.33;;;7.40;99.90;;;;;;5114037;28;20496;-70
2022/11/22 11:54:25;;;;;;;10.23;2.03;;;7.40;99.90;;;;;;5114001;28;20039;-70
2022/11/22 11:57:04;;;;;;;11.57;2.00;;;7.40;99.90;;;;;;5115547;28;20063;-70
2022/11/22 11:59:45;;;;;;;10.85;1.90;;;7.50;99.90;;;;;;5115087;28;20472;-70
2022/11/22 12:02:25;;;;;;;10.02;2.50;;;7.50;99.90;;;;;;5114080;28;20047;-70
2022/11/22 12:04:53;;;;;;;8.13;2.03;;;7.50;99.90;;;;;;5113862;28;20411;-70
2022/11/22 12:07:26;;;;;;;10.77;1.90;;;7.50;99.90;;;;;;5112777;28;20516;-70
2022/11/22 12:09:52;;;;;;;;;;;7.60;99.90;;;;;;5115312;28;20040;-70
2022/11/22 12:12:37;;;;;;;8.77;1.80;;;7.60;99.90;;;;;;5113739;28;20308;-70
2022/11/22 12:15:28;;;;;;;8.77;1.80;;;7.60;99.90;;;;;;5113878;28;20070;-70
2022/11/22 12:18:11;;;;;;;7.63;1.58;;;7.60;99.90;;;;;;5113572;28;20520;-70
2022/11/22 12:20:55;;;;;;;;;;;7.60;99.90;;;;;;5114219;28;20048;-70
2022/11/22 12:23:36;;;;;;;7.95;1.42;;;7.60;99.90;;;;;;5113389;28;20384;-70
2022/11/22 12:26:02;;;;;;;9.13;1.55;;;7.60;99.90;;;;;;5115235;28;20043;-71
2022/11/22 12:28:28;;;;;;;9.30;1.98;;;7.60;99.90;;;;;;5113307;28;20122;-70
2022/11/22 12:31:15;;;;;;;6.40;1.42;;;7.60;99.90;;;;;;5113454;28;20082;-70
2022/11/22 12:33:53;;;;;;;6.30;1.48;;;7.70;99.90;;;;;;5113077;28;20455;-70
2022/11/22 12:36:28;;;;;;;8.38;2.05;;;7.60;99.90;;;;;;5096474;28;20040;-70
2022/11/22 12:38:55;;;;;;;10.00;1.90;;;7.70;99.90;;;;;;5113148;28;20046;-70
2022/11/22 12:41:26;;;;;;;10.77;2.00;;;7.60;99.90;;;;;;5113097;28;20527;-70
2022/11/22 12:44:01;;;;;;;7.18;1.58;;;7.60;99.90;;;;;;5113019;28;20130;-70
2022/11/22 12:46:36;;;;;;;7.25;1.77;;;7.70;99.90;;;;;;5112981;28;20044;-70
2022/11/22 12:49:25;;;;;;;9.48;2.10;;;7.70;99.90;;;;;;5113326;28;20047;-70
2022/11/22 12:52:19;;;;;;;9.45;1.55;;;7.60;99.90;;;;;;5114170;28;20524;-70
2022/11/22 12:55:20;;;;;;;10.65;1.45;;;7.60;99.90;;;;;;5112925;28;20043;-70
2022/11/22 12:58:15;;;;;;;9.43;1.45;;;7.60;99.90;;;;;;5112911;28;20054;-70
2022/11/22 13:01:08;;;;;;;4.50;1.45;;;7.60;99.90;;;;;;5112902;28;20130;-70
2022/11/22 13:04:00;;;;;;;10.20;2.10;;;7.60;99.90;;;;;;5112719;28;20050;-70
2022/11/22 13:06:32;;;;;;;8.98;1.83;;;7.60;99.90;;;;;;5112988;28;20507;-70
2022/11/22 13:09:04;;;;;;;9.80;1.93;;;7.60;99.90;;;;;;5112649;28;20114;-70
2022/11/22 13:12:01;;;;;;;11.65;2.03;;;7.60;99.90;;;;;;5113033;28;20488;-70